createdAt,value
2023-01-19T00:01:35.838Z,1.17
2023-01-19T00:04:07.588Z,1.13
2023-01-19T00:06:37.450Z,1.09
2023-01-19T00:09:10.092Z,1.02
2023-01-19T00:11:38.334Z,0.98
2023-01-19T00:14:07.577Z,0.94
2023-01-19T00:16:37.615Z,0.89
2023-01-19T00:19:10.650Z,0.83
2023-01-19T00:21:49.586Z,0.79
2023-01-19T00:24:19.661Z,0.77
2023-01-19T00:26:49.207Z,0.76
2023-01-19T00:29:18.262Z,0.74
2023-01-19T00:31:46.614Z,0.70
2023-01-19T00:34:23.643Z,0.69
2023-01-19T00:37:03.936Z,0.66
2023-01-19T00:39:31.767Z,0.65
2023-01-19T00:42:17.958Z,0.64
2023-01-19T00:47:28.297Z,0.60
2023-01-19T00:50:01.115Z,0.61
2023-01-19T00:52:29.280Z,0.60
2023-01-19T00:54:57.986Z,0.60
2023-01-19T00:57:38.827Z,0.59
2023-01-19T01:00:19.748Z,0.59
2023-01-19T01:02:53.447Z,0.57
2023-01-19T01:05:25.414Z,0.57
2023-01-19T01:08:04.700Z,0.58
2023-01-19T01:10:32.879Z,0.59
2023-01-19T01:13:20.355Z,0.58
2023-01-19T01:15:57.951Z,0.58
2023-01-19T01:18:32.975Z,0.59
2023-01-19T01:21:09.355Z,0.59
2023-01-19T01:23:51.640Z,0.63
2023-01-19T01:26:26.366Z,0.66
2023-01-19T01:28:57.577Z,0.68
2023-01-19T01:31:28.198Z,0.69
2023-01-19T01:33:57.353Z,0.67
2023-01-19T01:36:28.235Z,0.67
2023-01-19T01:38:55.939Z,0.66
2023-01-19T01:41:27.442Z,0.66
2023-01-19T01:44:01.887Z,0.65
2023-01-19T01:46:33.059Z,0.66
2023-01-19T01:49:15.643Z,0.66
2023-01-19T01:51:57.482Z,0.66
2023-01-19T01:54:33.409Z,0.65
2023-01-19T01:57:15.713Z,0.63
2023-01-19T01:59:52.388Z,0.59
2023-01-19T02:02:46.411Z,0.47
2023-01-19T02:05:37.782Z,0.37
2023-01-19T02:08:37.628Z,0.36
2023-01-19T02:11:25.049Z,0.34
2023-01-19T02:13:53.650Z,0.32
2023-01-19T02:16:23.246Z,0.26
2023-01-19T02:18:51.494Z,0.22
2023-01-19T02:21:49.092Z,0.20
2023-01-19T02:24:17.545Z,0.18
2023-01-19T02:26:48.321Z,0.11
2023-01-19T02:29:20.098Z,0.02
2023-01-19T02:31:49.148Z,-0.05
2023-01-19T02:34:20.981Z,-0.10
2023-01-19T02:37:16.984Z,-0.10
2023-01-19T02:39:58.506Z,-0.10
2023-01-19T02:42:36.303Z,-0.13
2023-01-19T02:45:06.793Z,-0.16
2023-01-19T02:47:49.329Z,-0.23
2023-01-19T02:50:36.746Z,-0.26
2023-01-19T02:53:38.112Z,-0.28
2023-01-19T02:56:43.861Z,-0.27
2023-01-19T02:59:55.767Z,-0.27
2023-01-19T03:03:18.657Z,-0.29
2023-01-19T03:06:13.928Z,-0.27
2023-01-19T03:09:17.938Z,-0.25
2023-01-19T03:12:16.602Z,-0.22
2023-01-19T03:14:48.189Z,-0.21
2023-01-19T03:17:19.076Z,-0.22
2023-01-19T03:19:51.324Z,-0.22
2023-01-19T03:22:31.035Z,-0.26
2023-01-19T03:25:03.838Z,-0.28
2023-01-19T03:27:40.967Z,-0.35
2023-01-19T03:30:15.784Z,-0.41
2023-01-19T03:33:36.634Z,-0.46
2023-01-19T03:36:14.031Z,-0.51
2023-01-19T03:38:45.318Z,-0.52
2023-01-19T03:41:20.219Z,-0.59
2023-01-19T03:43:52.194Z,-0.62
2023-01-19T03:46:20.567Z,-0.66
2023-01-19T03:48:49.878Z,-0.67
2023-01-19T03:51:20.219Z,-0.73
2023-01-19T03:53:52.045Z,-0.70
2023-01-19T03:56:25.554Z,-0.72
2023-01-19T03:58:56.166Z,-0.75
2023-01-19T04:01:26.253Z,-0.75
2023-01-19T04:03:54.266Z,-0.75
2023-01-19T04:06:22.463Z,-0.74
2023-01-19T04:08:51.401Z,-0.76
2023-01-19T04:11:19.420Z,-0.75
2023-01-19T04:13:47.119Z,-0.78
2023-01-19T04:16:20.161Z,-0.78
2023-01-19T04:18:51.094Z,-0.78
2023-01-19T04:21:20.355Z,-0.79
2023-01-19T04:23:52.386Z,-0.78
2023-01-19T04:26:21.042Z,-0.80
2023-01-19T04:28:48.643Z,-0.80
2023-01-19T04:31:21.306Z,-0.79
2023-01-19T04:33:50.490Z,-0.80
2023-01-19T04:36:24.968Z,-0.78
2023-01-19T04:38:52.738Z,-0.79
2023-01-19T04:41:21.385Z,-0.80
2023-01-19T04:43:49.173Z,-0.81
2023-01-19T04:46:17.118Z,-0.81
2023-01-19T04:48:46.292Z,-0.80
2023-01-19T04:51:15.865Z,-0.79
2023-01-19T04:53:43.954Z,-0.79
2023-01-19T04:56:12.436Z,-0.77
2023-01-19T04:58:41.310Z,-0.78
2023-01-19T05:01:17.433Z,-0.74
2023-01-19T05:03:45.204Z,-0.74
2023-01-19T05:06:13.337Z,-0.72
2023-01-19T05:08:41.140Z,-0.71
2023-01-19T05:11:09.371Z,-0.70
2023-01-19T05:13:38.077Z,-0.68
2023-01-19T05:16:06.767Z,-0.66
2023-01-19T05:18:37.204Z,-0.68
2023-01-19T05:21:05.352Z,-0.67
2023-01-19T05:23:34.486Z,-0.65
2023-01-19T05:26:03.031Z,-0.63
2023-01-19T05:28:33.102Z,-0.64
2023-01-19T05:31:00.977Z,-0.61
2023-01-19T05:33:28.660Z,-0.61
2023-01-19T05:35:56.649Z,-0.61
2023-01-19T05:38:34.685Z,-0.62
2023-01-19T05:41:05.434Z,-0.61
2023-01-19T05:43:33.081Z,-0.61
2023-01-19T05:46:00.756Z,-0.60
2023-01-19T05:48:29.663Z,-0.61
2023-01-19T05:51:01.425Z,-0.62
2023-01-19T05:53:29.614Z,-0.60
2023-01-19T05:56:06.137Z,-0.59
2023-01-19T05:58:40.587Z,-0.61
2023-01-19T06:01:15.793Z,-0.61
2023-01-19T06:03:48.715Z,-0.60
2023-01-19T06:06:17.572Z,-0.59
2023-01-19T06:08:53.791Z,-0.58
2023-01-19T06:11:22.232Z,-0.58
2023-01-19T06:13:51.696Z,-0.56
2023-01-19T06:16:20.867Z,-0.56
2023-01-19T06:18:48.385Z,-0.53
2023-01-19T06:21:17.244Z,-0.54
2023-01-19T06:23:44.796Z,-0.50
2023-01-19T06:26:12.670Z,-0.50
2023-01-19T06:28:40.329Z,-0.48
2023-01-19T06:31:07.934Z,-0.47
2023-01-19T06:33:36.767Z,-0.46
2023-01-19T06:36:04.570Z,-0.43
2023-01-19T06:38:33.006Z,-0.42
2023-01-19T06:41:04.865Z,-0.41
2023-01-19T06:43:32.512Z,-0.39
2023-01-19T06:46:02.350Z,-0.41
2023-01-19T06:48:30.051Z,-0.40
2023-01-19T06:50:59.826Z,-0.38
2023-01-19T06:53:30.202Z,-0.39
2023-01-19T06:56:04.971Z,-0.38
2023-01-19T06:58:35.512Z,-0.38
2023-01-19T07:01:06.221Z,-0.38
2023-01-19T07:03:38.526Z,-0.37
2023-01-19T07:06:09.536Z,-0.36
2023-01-19T07:08:37.879Z,-0.36
2023-01-19T07:11:25.246Z,-0.34
2023-01-19T07:13:56.581Z,-0.32
2023-01-19T07:16:24.345Z,-0.32
2023-01-19T07:18:52.500Z,-0.31
2023-01-19T07:21:21.350Z,-0.28
2023-01-19T07:23:51.440Z,-0.27
2023-01-19T07:26:21.456Z,-0.26
2023-01-19T07:28:49.834Z,-0.25
2023-01-19T07:31:19.585Z,-0.23
2023-01-19T07:33:50.390Z,-0.23
2023-01-19T07:36:20.424Z,-0.23
2023-01-19T07:38:49.864Z,-0.23
2023-01-19T07:41:18.654Z,-0.21
2023-01-19T07:43:51.318Z,-0.20
2023-01-19T07:46:19.235Z,-0.15
2023-01-19T07:48:55.209Z,-0.10
2023-01-19T07:51:23.587Z,-0.06
2023-01-19T07:53:54.393Z,-0.05
2023-01-19T07:56:32.736Z,0.01
2023-01-19T07:59:04.426Z,0.04
2023-01-19T08:01:32.092Z,0.07
2023-01-19T08:03:59.901Z,0.09
2023-01-19T08:06:37.936Z,0.11
2023-01-19T08:09:07.063Z,0.10
2023-01-19T08:11:34.699Z,0.12
2023-01-19T08:14:03.362Z,0.10
2023-01-19T08:16:32.987Z,0.13
2023-01-19T08:19:03.344Z,0.15
2023-01-19T08:21:33.297Z,0.15
2023-01-19T08:24:20.871Z,0.14
2023-01-19T08:26:49.704Z,0.15
2023-01-19T08:29:17.408Z,0.14
2023-01-19T08:31:45.607Z,0.14
2023-01-19T08:34:13.663Z,0.14
2023-01-19T08:36:41.712Z,0.16
2023-01-19T08:39:14.808Z,0.20
2023-01-19T08:41:42.892Z,0.28
2023-01-19T08:44:10.565Z,0.35
2023-01-19T08:46:46.767Z,0.41
2023-01-19T08:49:14.725Z,0.47
2023-01-19T08:51:46.932Z,0.51
2023-01-19T08:54:18.576Z,0.55
2023-01-19T08:56:46.438Z,0.56
2023-01-19T08:59:14.290Z,0.57
2023-01-19T09:01:42.423Z,0.54
2023-01-19T09:04:10.135Z,0.54
2023-01-19T09:06:37.749Z,0.55
2023-01-19T09:09:05.741Z,0.52
2023-01-19T09:11:35.000Z,0.51
2023-01-19T09:14:05.696Z,0.50
2023-01-19T09:16:36.617Z,0.49
2023-01-19T09:19:08.594Z,0.45
2023-01-19T09:21:39.508Z,0.42
2023-01-19T09:24:09.044Z,0.40
2023-01-19T09:26:40.632Z,0.38
2023-01-19T09:29:09.474Z,0.42
2023-01-19T09:31:38.770Z,0.49
2023-01-19T09:34:06.766Z,0.56
2023-01-19T09:36:40.570Z,0.59
2023-01-19T09:39:11.059Z,0.57
2023-01-19T09:41:47.737Z,0.57
2023-01-19T09:44:32.328Z,0.56
2023-01-19T09:47:16.981Z,0.55
2023-01-19T09:49:53.819Z,0.55
2023-01-19T09:52:22.397Z,0.54
2023-01-19T09:54:58.517Z,0.55
2023-01-19T09:57:30.642Z,0.60
2023-01-19T09:59:59.715Z,0.65
2023-01-19T10:02:46.924Z,0.68
2023-01-19T10:05:56.676Z,0.74
2023-01-19T10:09:09.776Z,0.78
2023-01-19T10:12:10.361Z,0.76
2023-01-19T10:15:17.692Z,0.85
2023-01-19T10:18:03.063Z,0.93
2023-01-19T10:20:40.862Z,0.94
2023-01-19T10:23:36.773Z,1.00
2023-01-19T10:26:28.882Z,1.00
2023-01-19T10:29:07.401Z,1.02
2023-01-19T10:31:38.321Z,1.14
2023-01-19T10:34:18.872Z,1.38
2023-01-19T10:36:53.656Z,1.83
2023-01-19T10:39:21.426Z,2.17
2023-01-19T10:41:53.851Z,2.31
2023-01-19T10:44:36.674Z,2.38
2023-01-19T10:47:17.397Z,2.33
2023-01-19T10:49:50.227Z,2.23
2023-01-19T10:52:29.070Z,2.12
2023-01-19T10:55:01.114Z,2.09
2023-01-19T10:57:39.551Z,2.13
2023-01-19T11:00:41.145Z,2.24
2023-01-19T11:03:31.389Z,2.56
2023-01-19T11:06:40.844Z,2.82
2023-01-19T11:09:25.360Z,3.11
2023-01-19T11:15:02.872Z,3.71
2023-01-19T11:17:36.280Z,3.98
2023-01-19T11:23:05.689Z,4.42
2023-01-19T11:32:12.649Z,4.98
2023-01-19T11:37:41.784Z,5.22
2023-01-19T11:40:31.455Z,5.36
2023-01-19T11:43:13.946Z,5.57
2023-01-19T11:45:53.411Z,5.82
2023-01-19T11:48:39.141Z,6.05
2023-01-19T11:52:03.224Z,6.19
2023-01-19T11:55:20.857Z,6.18
2023-01-19T11:58:04.123Z,6.18
2023-01-19T12:01:08.429Z,6.08
2023-01-19T12:04:00.971Z,5.93
2023-01-19T12:06:59.640Z,5.72
2023-01-19T12:09:49.799Z,5.65
2023-01-19T12:12:37.271Z,5.57
2023-01-19T12:15:50.568Z,5.66
2023-01-19T12:18:53.082Z,5.82
2023-01-19T12:21:24.917Z,5.87
2023-01-19T12:24:33.513Z,5.97
2023-01-19T12:27:56.203Z,6.09
2023-01-19T12:30:28.453Z,6.23
2023-01-19T12:33:29.160Z,6.16
2023-01-19T12:36:15.309Z,6.05
2023-01-19T12:39:04.812Z,5.93
2023-01-19T12:41:39.929Z,5.82
2023-01-19T12:44:19.529Z,5.69
2023-01-19T12:47:07.786Z,5.69
2023-01-19T12:50:16.884Z,5.88
2023-01-19T12:53:26.636Z,5.97
2023-01-19T12:56:09.673Z,5.78
2023-01-19T12:58:47.611Z,5.62
2023-01-19T13:01:45.754Z,5.73
2023-01-19T13:07:28.298Z,6.54
2023-01-19T13:10:01.300Z,6.90
2023-01-19T13:12:36.163Z,7.23
2023-01-19T13:15:37.473Z,7.58
2023-01-19T13:18:10.134Z,7.82
2023-01-19T13:21:01.592Z,8.14
2023-01-19T13:24:15.168Z,8.41
2023-01-19T13:27:07.745Z,8.20
2023-01-19T13:29:41.689Z,8.12
2023-01-19T13:32:18.784Z,8.16
2023-01-19T13:35:02.054Z,8.33
2023-01-19T13:37:44.720Z,8.28
2023-01-19T13:40:34.249Z,7.98
2023-01-19T13:43:03.698Z,7.83
2023-01-19T13:45:41.041Z,7.74
2023-01-19T13:48:31.690Z,7.96
2023-01-19T13:51:26.481Z,8.14
2023-01-19T13:54:09.822Z,8.13
2023-01-19T13:56:40.798Z,8.04
2023-01-19T13:59:14.031Z,8.13
2023-01-19T14:04:36.438Z,7.93
2023-01-19T14:07:26.654Z,7.82
2023-01-19T14:10:14.444Z,7.42
2023-01-19T14:15:44.760Z,7.43
2023-01-19T14:18:38.214Z,7.49
2023-01-19T14:21:25.014Z,7.16
2023-01-19T14:23:57.976Z,6.59
2023-01-19T14:27:02.717Z,6.08
2023-01-19T14:29:35.457Z,5.66
2023-01-19T14:32:25.835Z,5.50
2023-01-19T14:35:04.780Z,5.49
2023-01-19T14:37:49.842Z,5.61
2023-01-19T14:40:40.985Z,5.69
2023-01-19T14:43:30.870Z,5.86
2023-01-19T14:46:40.443Z,5.91
2023-01-19T14:49:40.392Z,5.75
2023-01-19T14:52:30.701Z,5.32
2023-01-19T14:54:59.867Z,4.98
2023-01-19T14:57:29.776Z,4.74
2023-01-19T15:00:02.557Z,4.54
2023-01-19T15:02:42.226Z,4.37
2023-01-19T15:05:14.054Z,4.23
2023-01-19T15:07:50.673Z,4.05
2023-01-19T15:10:38.705Z,3.85
2023-01-19T15:13:08.030Z,3.70
2023-01-19T15:15:43.909Z,3.56
2023-01-19T15:18:20.639Z,3.44
2023-01-19T15:20:49.734Z,3.30
2023-01-19T15:23:29.152Z,3.21
2023-01-19T15:26:13.973Z,3.05
2023-01-19T15:28:52.368Z,2.99
2023-01-19T15:34:29.972Z,2.78
2023-01-19T15:37:01.095Z,2.71
2023-01-19T15:42:29.909Z,2.50
2023-01-19T15:45:02.660Z,2.41
2023-01-19T15:47:35.744Z,2.37
2023-01-19T15:50:09.590Z,2.31
2023-01-19T15:52:40.939Z,2.27
2023-01-19T15:55:17.005Z,2.26
2023-01-19T15:57:53.052Z,2.24
2023-01-19T16:00:25.562Z,2.17
2023-01-19T16:03:05.792Z,2.07
2023-01-19T16:05:43.194Z,2.03
2023-01-19T16:08:15.065Z,1.94
2023-01-19T16:10:48.223Z,1.87
2023-01-19T16:13:32.483Z,1.79
2023-01-19T16:16:39.939Z,1.73
2023-01-19T16:19:14.585Z,1.67
2023-01-19T16:21:53.273Z,1.59
2023-01-19T16:24:46.357Z,1.53
2023-01-19T16:27:30.752Z,1.48
2023-01-19T16:30:13.239Z,1.45
2023-01-19T16:32:53.289Z,1.40
2023-01-19T16:35:23.484Z,1.34
2023-01-19T16:40:47.830Z,1.26
2023-01-19T16:46:19.789Z,1.18
2023-01-19T16:49:07.265Z,1.15
2023-01-19T16:51:48.496Z,1.11
2023-01-19T16:54:30.423Z,1.06
2023-01-19T16:56:59.842Z,1.00
2023-01-19T16:59:31.360Z,0.96
2023-01-19T17:02:24.160Z,0.92
2023-01-19T17:05:03.160Z,0.89
2023-01-19T17:07:36.117Z,0.86
2023-01-19T17:12:51.643Z,0.76
2023-01-19T17:15:42.934Z,0.74
2023-01-19T17:18:15.038Z,0.69
2023-01-19T17:20:48.362Z,0.63
2023-01-19T17:23:33.830Z,0.60
2023-01-19T17:26:16.051Z,0.56
2023-01-19T17:31:37.233Z,0.50
2023-01-19T17:37:05.234Z,0.45
2023-01-19T17:42:43.144Z,0.40
2023-01-19T17:45:39.295Z,0.38
2023-01-19T17:57:19.893Z,0.28
2023-01-19T18:02:48.980Z,0.25
2023-01-19T18:08:35.952Z,0.20
2023-01-19T18:11:08.276Z,0.15
2023-01-19T18:13:48.444Z,0.14
2023-01-19T18:22:23.527Z,0.04
2023-01-19T18:25:05.719Z,0.01
2023-01-19T18:33:29.030Z,-0.07
2023-01-19T18:36:17.942Z,-0.08
2023-01-19T18:38:55.791Z,-0.10
2023-01-19T18:44:36.439Z,-0.12
2023-01-19T18:47:37.484Z,-0.14
2023-01-19T18:50:07.268Z,-0.14
2023-01-19T18:52:48.859Z,-0.15
2023-01-19T18:55:38.792Z,-0.16
2023-01-19T18:58:21.832Z,-0.18
2023-01-19T19:01:00.052Z,-0.16
2023-01-19T19:03:37.051Z,-0.15
2023-01-19T19:09:20.423Z,-0.17
2023-01-19T19:11:58.477Z,-0.19
2023-01-19T19:17:27.554Z,-0.21
2023-01-19T19:19:55.788Z,-0.21
2023-01-19T19:25:14.607Z,-0.23
2023-01-19T19:31:27.052Z,-0.25
2023-01-19T19:36:51.811Z,-0.28
2023-01-19T19:39:22.017Z,-0.28
2023-01-19T19:44:39.397Z,-0.29
2023-01-19T19:54:11.483Z,-0.31
2023-01-19T19:56:44.910Z,-0.33
2023-01-19T19:59:22.104Z,-0.33
2023-01-19T20:01:58.727Z,-0.35
2023-01-19T20:04:33.728Z,-0.34
2023-01-19T20:10:06.793Z,-0.38
2023-01-19T20:12:48.636Z,-0.39
2023-01-19T20:18:13.380Z,-0.42
2023-01-19T20:23:52.599Z,-0.45
2023-01-19T20:29:33.883Z,-0.48
2023-01-19T20:34:50.568Z,-0.49
2023-01-19T20:37:29.498Z,-0.51
2023-01-19T20:40:16.881Z,-0.50
2023-01-19T20:42:57.671Z,-0.51
2023-01-19T20:48:13.342Z,-0.46
2023-01-19T20:53:43.892Z,-0.34
2023-01-19T20:56:20.162Z,-0.26
2023-01-19T20:59:03.028Z,-0.19
2023-01-19T21:01:42.380Z,-0.14
2023-01-19T21:04:14.046Z,-0.08
2023-01-19T21:06:46.737Z,-0.05
2023-01-19T21:09:42.215Z,-0.02
2023-01-19T21:12:14.402Z,0.00
2023-01-19T21:14:53.050Z,-0.01
2023-01-19T21:17:23.445Z,0.01
2023-01-19T21:22:51.678Z,0.02
2023-01-19T21:25:29.483Z,0.01
2023-01-19T21:30:54.020Z,0.01
2023-01-19T21:33:34.420Z,0.02
2023-01-19T21:36:04.555Z,0.03
2023-01-19T21:38:50.780Z,0.05
2023-01-19T21:41:32.513Z,0.05
2023-01-19T21:44:04.605Z,0.05
2023-01-19T21:46:40.849Z,0.05
2023-01-19T21:49:19.884Z,0.04
2023-01-19T21:51:52.732Z,0.04
2023-01-19T21:54:24.020Z,0.05
2023-01-19T21:56:56.937Z,0.04
2023-01-19T21:59:33.400Z,0.05
2023-01-19T22:02:01.405Z,0.04
2023-01-19T22:05:10.650Z,0.06
2023-01-19T22:07:53.313Z,0.08
2023-01-19T22:10:22.999Z,0.09
2023-01-19T22:13:05.650Z,0.09
2023-01-19T22:15:43.636Z,0.11
2023-01-19T22:18:16.197Z,0.13
2023-01-19T22:20:46.743Z,0.13
2023-01-19T22:23:16.480Z,0.12
2023-01-19T22:26:05.232Z,0.13
2023-01-19T22:28:33.572Z,0.08
2023-01-19T22:31:11.292Z,0.11
2023-01-19T22:33:46.608Z,0.09
2023-01-19T22:36:34.454Z,0.09
2023-01-19T22:39:19.207Z,0.13
2023-01-19T22:41:53.805Z,0.13
2023-01-19T22:44:24.523Z,0.14
2023-01-19T22:46:58.373Z,0.15
2023-01-19T22:49:28.871Z,0.16
2023-01-19T22:51:57.835Z,0.16
2023-01-19T22:54:39.691Z,0.18
2023-01-19T22:57:14.805Z,0.15
2023-01-19T22:59:46.399Z,0.12
2023-01-19T23:02:15.048Z,0.13
2023-01-19T23:04:46.225Z,0.14
2023-01-19T23:10:11.259Z,0.08
2023-01-19T23:12:41.378Z,0.05
2023-01-19T23:15:09.981Z,0.07
2023-01-19T23:17:38.046Z,0.06
2023-01-19T23:20:07.627Z,0.09
2023-01-19T23:22:37.071Z,0.05
2023-01-19T23:25:06.348Z,0.05
2023-01-19T23:27:38.655Z,0.07
2023-01-19T23:30:09.293Z,0.08
2023-01-19T23:32:38.761Z,0.10
2023-01-19T23:35:12.008Z,0.10
2023-01-19T23:37:42.772Z,0.13
2023-01-19T23:40:17.072Z,0.14
2023-01-19T23:42:46.567Z,0.14
2023-01-19T23:45:23.426Z,0.13
2023-01-19T23:47:53.191Z,0.16
2023-01-19T23:50:33.293Z,0.15
2023-01-19T23:53:05.160Z,0.14
2023-01-19T23:55:38.687Z,0.13
2023-01-19T23:58:08.471Z,0.12
